sensor_id;sensor_type;location;lat;lon;timestamp;temperature;humidity
1461;DHT22;724;49.910;12.530;2023-05-10T00:01:07;8.30;99.90
1461;DHT22;724;49.910;12.530;2023-05-10T00:03:34;8.20;99.90
1461;DHT22;724;49.910;12.530;2023-05-10T00:06:01;8.10;99.90
1461;DHT22;724;49.910;12.530;2023-05-10T00:08:28;8.20;99.90
1461;DHT22;724;49.910;12.530;2023-05-10T00:10:54;8.20;99.90
1461;DHT22;724;49.910;12.530;2023-05-10T00:13:22;8.10;99.90
1461;DHT22;724;49.910;12.530;2023-05-10T00:15:51;8.20;99.90
1461;DHT22;724;49.910;12.530;2023-05-10T00:18:18;8.20;99.90
1461;DHT22;724;49.910;12.530;2023-05-10T00:20:45;8.10;99.90
1461;DHT22;724;49.910;12.530;2023-05-10T00:23:13;8.20;99.90
1461;DHT22;724;49.910;12.530;2023-05-10T00:25:40;8.20;99.90
1461;DHT22;724;49.910;12.530;2023-05-10T00:28:07;8.20;99.90
1461;DHT22;724;49.910;12.530;2023-05-10T00:30:35;8.10;99.90
1461;DHT22;724;49.910;12.530;2023-05-10T00:33:02;8.10;99.90
1461;DHT22;724;49.910;12.530;2023-05-10T00:35:29;8.00;99.90
1461;DHT22;724;49.910;12.530;2023-05-10T00:37:56;8.00;1.00
1461;DHT22;724;49.910;12.530;2023-05-10T00:40:22;8.10;1.00
1461;DHT22;724;49.910;12.530;2023-05-10T00:42:49;7.90;1.00
1461;DHT22;724;49.910;12.530;2023-05-10T00:45:16;7.80;1.00
1461;DHT22;724;49.910;12.530;2023-05-10T00:47:45;7.90;1.00
1461;DHT22;724;49.910;12.530;2023-05-10T00:50:12;7.90;1.00
1461;DHT22;724;49.910;12.530;2023-05-10T00:52:39;7.90;1.00
1461;DHT22;724;49.910;12.530;2023-05-10T00:55:07;8.00;1.00
1461;DHT22;724;49.910;12.530;2023-05-10T00:57:34;7.90;1.00
1461;DHT22;724;49.910;12.530;2023-05-10T01:00:03;7.90;1.00
1461;DHT22;724;49.910;12.530;2023-05-10T01:02:30;8.00;1.00
1461;DHT22;724;49.910;12.530;2023-05-10T01:04:59;7.90;1.00
1461;DHT22;724;49.910;12.530;2023-05-10T01:07:26;7.90;1.00
1461;DHT22;724;49.910;12.530;2023-05-10T01:09:53;7.90;1.00
1461;DHT22;724;49.910;12.530;2023-05-10T01:12:20;7.90;1.00
1461;DHT22;724;49.910;12.530;2023-05-10T01:14:47;7.90;1.00
1461;DHT22;724;49.910;12.530;2023-05-10T01:17:16;8.00;1.00
1461;DHT22;724;49.910;12.530;2023-05-10T01:19:44;7.90;1.00
1461;DHT22;724;49.910;12.530;2023-05-10T01:22:32;8.00;1.00
1461;DHT22;724;49.910;12.530;2023-05-10T01:25:37;7.90;1.00
1461;DHT22;724;49.910;12.530;2023-05-10T01:28:38;7.90;1.00
1461;DHT22;724;49.910;12.530;2023-05-10T01:31:21;7.70;1.00
1461;DHT22;724;49.910;12.530;2023-05-10T01:33:54;7.70;1.00
1461;DHT22;724;49.910;12.530;2023-05-10T01:36:28;7.70;1.00
1461;DHT22;724;49.910;12.530;2023-05-10T01:39:01;7.70;1.00
1461;DHT22;724;49.910;12.530;2023-05-10T01:41:36;7.70;1.00
1461;DHT22;724;49.910;12.530;2023-05-10T01:44:13;7.80;1.00
1461;DHT22;724;49.910;12.530;2023-05-10T01:46:43;7.90;1.00
1461;DHT22;724;49.910;12.530;2023-05-10T01:49:18;7.70;1.00
1461;DHT22;724;49.910;12.530;2023-05-10T01:51:50;7.70;1.00
1461;DHT22;724;49.910;12.530;2023-05-10T01:54:21;7.70;1.00
1461;DHT22;724;49.910;12.530;2023-05-10T01:56:52;7.80;1.00
1461;DHT22;724;49.910;12.530;2023-05-10T01:59:22;7.80;1.00
1461;DHT22;724;49.910;12.530;2023-05-10T02:01:52;7.70;1.00
1461;DHT22;724;49.910;12.530;2023-05-10T02:04:22;7.80;1.00
1461;DHT22;724;49.910;12.530;2023-05-10T02:06:51;7.80;1.00
1461;DHT22;724;49.910;12.530;2023-05-10T02:09:20;7.90;1.00
1461;DHT22;724;49.910;12.530;2023-05-10T02:11:48;7.90;1.00
1461;DHT22;724;49.910;12.530;2023-05-10T02:14:16;7.90;1.00
1461;DHT22;724;49.910;12.530;2023-05-10T02:16:45;7.90;1.00
1461;DHT22;724;49.910;12.530;2023-05-10T02:19:13;7.90;1.00
1461;DHT22;724;49.910;12.530;2023-05-10T02:21:43;7.80;1.00
1461;DHT22;724;49.910;12.530;2023-05-10T02:24:11;7.80;1.00
1461;DHT22;724;49.910;12.530;2023-05-10T02:26:40;7.70;1.00
1461;DHT22;724;49.910;12.530;2023-05-10T02:29:08;7.80;1.00
1461;DHT22;724;49.910;12.530;2023-05-10T02:31:37;7.70;1.00
1461;DHT22;724;49.910;12.530;2023-05-10T02:34:06;7.70;1.00
1461;DHT22;724;49.910;12.530;2023-05-10T02:36:34;7.70;1.00
1461;DHT22;724;49.910;12.530;2023-05-10T02:39:03;7.60;1.00
1461;DHT22;724;49.910;12.530;2023-05-10T02:41:35;7.60;1.00
1461;DHT22;724;49.910;12.530;2023-05-10T02:44:03;7.60;1.00
1461;DHT22;724;49.910;12.530;2023-05-10T02:46:33;7.70;1.00
1461;DHT22;724;49.910;12.530;2023-05-10T02:49:03;7.60;1.00
1461;DHT22;724;49.910;12.530;2023-05-10T02:51:32;7.70;1.00
1461;DHT22;724;49.910;12.530;2023-05-10T02:54:09;7.70;1.00
1461;DHT22;724;49.910;12.530;2023-05-10T02:56:40;7.70;1.00
1461;DHT22;724;49.910;12.530;2023-05-10T02:59:08;7.80;1.00
1461;DHT22;724;49.910;12.530;2023-05-10T03:01:36;7.80;1.00
1461;DHT22;724;49.910;12.530;2023-05-10T03:04:03;7.80;1.00
1461;DHT22;724;49.910;12.530;2023-05-10T03:06:30;7.90;1.00
1461;DHT22;724;49.910;12.530;2023-05-10T03:08:57;7.90;1.00
1461;DHT22;724;49.910;12.530;2023-05-10T03:11:37;7.90;1.00
1461;DHT22;724;49.910;12.530;2023-05-10T03:14:16;7.90;1.00
1461;DHT22;724;49.910;12.530;2023-05-10T03:16:52;7.80;1.00
1461;DHT22;724;49.910;12.530;2023-05-10T03:19:26;7.90;1.00
1461;DHT22;724;49.910;12.530;2023-05-10T03:21:53;7.90;1.00
1461;DHT22;724;49.910;12.530;2023-05-10T03:24:23;7.90;1.00
1461;DHT22;724;49.910;12.530;2023-05-10T03:26:55;7.80;1.00
1461;DHT22;724;49.910;12.530;2023-05-10T03:29:23;7.80;1.00
1461;DHT22;724;49.910;12.530;2023-05-10T03:31:51;7.90;1.00
1461;DHT22;724;49.910;12.530;2023-05-10T03:34:23;7.90;1.00
1461;DHT22;724;49.910;12.530;2023-05-10T03:36:50;7.90;1.00
1461;DHT22;724;49.910;12.530;2023-05-10T03:39:17;8.00;1.00
1461;DHT22;724;49.910;12.530;2023-05-10T03:41:44;7.90;1.00
1461;DHT22;724;49.910;12.530;2023-05-10T03:44:12;7.90;1.00
1461;DHT22;724;49.910;12.530;2023-05-10T03:46:39;8.00;1.00
1461;DHT22;724;49.910;12.530;2023-05-10T03:49:07;8.10;1.00
1461;DHT22;724;49.910;12.530;2023-05-10T03:51:34;8.00;1.00
1461;DHT22;724;49.910;12.530;2023-05-10T03:54:01;7.90;1.00
1461;DHT22;724;49.910;12.530;2023-05-10T03:56:28;7.90;1.00
1461;DHT22;724;49.910;12.530;2023-05-10T03:58:55;8.00;1.00
1461;DHT22;724;49.910;12.530;2023-05-10T04:01:23;8.00;1.00
1461;DHT22;724;49.910;12.530;2023-05-10T04:03:50;8.10;1.00
1461;DHT22;724;49.910;12.530;2023-05-10T04:06:17;8.00;1.00
1461;DHT22;724;49.910;12.530;2023-05-10T04:08:44;8.00;1.00
1461;DHT22;724;49.910;12.530;2023-05-10T04:11:11;8.00;1.00
1461;DHT22;724;49.910;12.530;2023-05-10T04:13:39;8.00;1.00
1461;DHT22;724;49.910;12.530;2023-05-10T04:16:06;8.10;1.00
1461;DHT22;724;49.910;12.530;2023-05-10T04:18:34;8.00;1.00
1461;DHT22;724;49.910;12.530;2023-05-10T04:21:01;8.10;1.00
1461;DHT22;724;49.910;12.530;2023-05-10T04:23:28;8.00;1.00
1461;DHT22;724;49.910;12.530;2023-05-10T04:25:59;8.00;1.00
1461;DHT22;724;49.910;12.530;2023-05-10T04:28:27;8.00;1.00
1461;DHT22;724;49.910;12.530;2023-05-10T04:31:00;8.00;1.00
1461;DHT22;724;49.910;12.530;2023-05-10T04:33:29;7.90;1.00
1461;DHT22;724;49.910;12.530;2023-05-10T04:35:57;8.10;1.00
1461;DHT22;724;49.910;12.530;2023-05-10T04:38:24;8.00;1.00
1461;DHT22;724;49.910;12.530;2023-05-10T04:40:52;8.00;1.00
1461;DHT22;724;49.910;12.530;2023-05-10T04:43:19;8.00;1.00
1461;DHT22;724;49.910;12.530;2023-05-10T04:45:46;8.00;1.00
1461;DHT22;724;49.910;12.530;2023-05-10T04:48:13;8.00;1.00
1461;DHT22;724;49.910;12.530;2023-05-10T04:50:39;8.10;1.00
1461;DHT22;724;49.910;12.530;2023-05-10T04:53:08;8.10;1.00
1461;DHT22;724;49.910;12.530;2023-05-10T04:55:34;8.00;1.00
1461;DHT22;724;49.910;12.530;2023-05-10T04:58:02;8.10;1.00
1461;DHT22;724;49.910;12.530;2023-05-10T05:00:29;8.20;1.00
1461;DHT22;724;49.910;12.530;2023-05-10T05:02:55;8.10;1.00
1461;DHT22;724;49.910;12.530;2023-05-10T05:05:22;8.10;1.00
1461;DHT22;724;49.910;12.530;2023-05-10T05:07:49;8.10;1.00
1461;DHT22;724;49.910;12.530;2023-05-10T05:10:18;8.00;1.00
1461;DHT22;724;49.910;12.530;2023-05-10T05:12:44;8.10;1.00
1461;DHT22;724;49.910;12.530;2023-05-10T05:15:11;8.00;1.00
1461;DHT22;724;49.910;12.530;2023-05-10T05:17:38;8.00;1.00
1461;DHT22;724;49.910;12.530;2023-05-10T05:20:06;8.10;1.00
1461;DHT22;724;49.910;12.530;2023-05-10T05:22:33;8.00;1.00
1461;DHT22;724;49.910;12.530;2023-05-10T05:25:00;7.90;1.00
1461;DHT22;724;49.910;12.530;2023-05-10T05:27:29;8.00;19.90
1461;DHT22;724;49.910;12.530;2023-05-10T05:29:56;8.00;93.90
1461;DHT22;724;49.910;12.530;2023-05-10T05:32:24;7.90;99.90
1461;DHT22;724;49.910;12.530;2023-05-10T05:34:51;7.90;99.90
1461;DHT22;724;49.910;12.530;2023-05-10T05:37:19;7.90;99.90
1461;DHT22;724;49.910;12.530;2023-05-10T05:39:48;7.90;99.90
1461;DHT22;724;49.910;12.530;2023-05-10T05:42:15;8.00;99.90
1461;DHT22;724;49.910;12.530;2023-05-10T05:44:45;8.00;99.90
1461;DHT22;724;49.910;12.530;2023-05-10T05:47:12;7.90;99.90
1461;DHT22;724;49.910;12.530;2023-05-10T05:49:39;8.00;1.00
1461;DHT22;724;49.910;12.530;2023-05-10T05:52:06;8.10;99.90
1461;DHT22;724;49.910;12.530;2023-05-10T05:54:32;7.90;1.00
1461;DHT22;724;49.910;12.530;2023-05-10T05:57:00;8.00;1.00
1461;DHT22;724;49.910;12.530;2023-05-10T05:59:27;8.00;1.00
1461;DHT22;724;49.910;12.530;2023-05-10T06:01:55;7.90;1.00
1461;DHT22;724;49.910;12.530;2023-05-10T06:04:22;7.90;1.00
1461;DHT22;724;49.910;12.530;2023-05-10T06:06:49;7.90;11.50
1461;DHT22;724;49.910;12.530;2023-05-10T06:09:17;7.80;99.90
1461;DHT22;724;49.910;12.530;2023-05-10T06:11:43;7.80;99.90
1461;DHT22;724;49.910;12.530;2023-05-10T06:14:10;7.80;99.90
1461;DHT22;724;49.910;12.530;2023-05-10T06:16:37;7.90;1.00
1461;DHT22;724;49.910;12.530;2023-05-10T06:19:05;7.90;1.00
1461;DHT22;724;49.910;12.530;2023-05-10T06:21:32;7.90;1.00
1461;DHT22;724;49.910;12.530;2023-05-10T06:23:59;8.10;1.00
1461;DHT22;724;49.910;12.530;2023-05-10T06:26:26;8.00;1.00
1461;DHT22;724;49.910;12.530;2023-05-10T06:28:52;7.90;1.00
1461;DHT22;724;49.910;12.530;2023-05-10T06:31:19;8.00;1.00
1461;DHT22;724;49.910;12.530;2023-05-10T06:33:46;8.10;1.00
1461;DHT22;724;49.910;12.530;2023-05-10T06:36:14;8.00;1.00
1461;DHT22;724;49.910;12.530;2023-05-10T06:38:41;8.00;1.00
1461;DHT22;724;49.910;12.530;2023-05-10T06:41:07;8.10;1.00
1461;DHT22;724;49.910;12.530;2023-05-10T06:43:34;8.20;1.00
1461;DHT22;724;49.910;12.530;2023-05-10T06:46:02;8.20;1.00
1461;DHT22;724;49.910;12.530;2023-05-10T06:48:29;8.00;1.00
1461;DHT22;724;49.910;12.530;2023-05-10T06:50:55;8.00;99.90
1461;DHT22;724;49.910;12.530;2023-05-10T06:53:24;8.00;99.90
1461;DHT22;724;49.910;12.530;2023-05-10T06:55:50;7.80;1.00
1461;DHT22;724;49.910;12.530;2023-05-10T06:58:17;7.80;1.00
1461;DHT22;724;49.910;12.530;2023-05-10T07:00:44;7.80;99.90
1461;DHT22;724;49.910;12.530;2023-05-10T07:03:12;7.70;1.00
1461;DHT22;724;49.910;12.530;2023-05-10T07:05:39;7.60;1.00
1461;DHT22;724;49.910;12.530;2023-05-10T07:08:05;7.70;17.40
1461;DHT22;724;49.910;12.530;2023-05-10T07:10:34;7.80;89.10
1461;DHT22;724;49.910;12.530;2023-05-10T07:13:01;7.80;5.30
1461;DHT22;724;49.910;12.530;2023-05-10T07:15:28;7.90;99.90
1461;DHT22;724;49.910;12.530;2023-05-10T07:17:55;7.80;1.00
1461;DHT22;724;49.910;12.530;2023-05-10T07:20:22;7.90;1.00
1461;DHT22;724;49.910;12.530;2023-05-10T07:22:48;8.00;99.90
1461;DHT22;724;49.910;12.530;2023-05-10T07:25:15;8.00;1.00
1461;DHT22;724;49.910;12.530;2023-05-10T07:27:44;8.00;1.00
1461;DHT22;724;49.910;12.530;2023-05-10T07:30:12;8.00;1.00
1461;DHT22;724;49.910;12.530;2023-05-10T07:32:39;7.90;1.00
1461;DHT22;724;49.910;12.530;2023-05-10T07:35:08;8.20;1.00
1461;DHT22;724;49.910;12.530;2023-05-10T07:37:34;8.10;1.00
1461;DHT22;724;49.910;12.530;2023-05-10T07:40:01;8.10;1.00
1461;DHT22;724;49.910;12.530;2023-05-10T07:42:28;8.30;1.00
1461;DHT22;724;49.910;12.530;2023-05-10T07:44:56;8.20;1.00
1461;DHT22;724;49.910;12.530;2023-05-10T07:47:23;8.10;1.00
1461;DHT22;724;49.910;12.530;2023-05-10T07:49:50;8.20;1.00
1461;DHT22;724;49.910;12.530;2023-05-10T07:52:16;8.20;1.00
1461;DHT22;724;49.910;12.530;2023-05-10T07:54:43;8.00;99.90
1461;DHT22;724;49.910;12.530;2023-05-10T07:57:10;8.00;1.00
1461;DHT22;724;49.910;12.530;2023-05-10T07:59:40;8.10;1.00
1461;DHT22;724;49.910;12.530;2023-05-10T08:02:08;8.00;99.90
1461;DHT22;724;49.910;12.530;2023-05-10T08:04:34;8.00;99.90
1461;DHT22;724;49.910;12.530;2023-05-10T08:07:01;8.30;99.90
1461;DHT22;724;49.910;12.530;2023-05-10T08:09:28;8.10;50.10
1461;DHT22;724;49.910;12.530;2023-05-10T08:11:55;8.00;1.00
1461;DHT22;724;49.910;12.530;2023-05-10T08:14:21;8.10;1.00
1461;DHT22;724;49.910;12.530;2023-05-10T08:16:48;8.20;97.90
1461;DHT22;724;49.910;12.530;2023-05-10T08:19:16;8.20;99.90
1461;DHT22;724;49.910;12.530;2023-05-10T08:21:44;8.30;99.90
1461;DHT22;724;49.910;12.530;2023-05-10T08:24:12;8.30;99.90
1461;DHT22;724;49.910;12.530;2023-05-10T08:26:38;8.40;1.00
1461;DHT22;724;49.910;12.530;2023-05-10T08:29:05;8.20;93.60
1461;DHT22;724;49.910;12.530;2023-05-10T08:31:32;8.40;99.90
1461;DHT22;724;49.910;12.530;2023-05-10T08:33:59;8.40;99.90
1461;DHT22;724;49.910;12.530;2023-05-10T08:36:27;8.40;1.00
1461;DHT22;724;49.910;12.530;2023-05-10T08:38:54;8.40;1.00
1461;DHT22;724;49.910;12.530;2023-05-10T08:41:22;8.50;1.00
1461;DHT22;724;49.910;12.530;2023-05-10T08:43:50;8.40;1.00
1461;DHT22;724;49.910;12.530;2023-05-10T08:46:18;8.40;1.00
1461;DHT22;724;49.910;12.530;2023-05-10T08:48:46;8.70;1.00
1461;DHT22;724;49.910;12.530;2023-05-10T08:51:15;8.70;99.90
1461;DHT22;724;49.910;12.530;2023-05-10T08:53:45;8.80;99.90
1461;DHT22;724;49.910;12.530;2023-05-10T08:56:12;9.30;99.90
1461;DHT22;724;49.910;12.530;2023-05-10T08:58:41;9.20;1.00
1461;DHT22;724;49.910;12.530;2023-05-10T09:01:08;9.20;99.90
1461;DHT22;724;49.910;12.530;2023-05-10T09:03:38;9.20;99.90
1461;DHT22;724;49.910;12.530;2023-05-10T09:06:05;9.40;1.00
1461;DHT22;724;49.910;12.530;2023-05-10T09:08:34;9.60;99.90
1461;DHT22;724;49.910;12.530;2023-05-10T09:11:04;9.10;1.00
1461;DHT22;724;49.910;12.530;2023-05-10T09:13:32;9.10;65.70
1461;DHT22;724;49.910;12.530;2023-05-10T09:15:59;9.10;99.90
1461;DHT22;724;49.910;12.530;2023-05-10T09:18:27;9.10;99.90
1461;DHT22;724;49.910;12.530;2023-05-10T09:20:54;9.20;1.00
1461;DHT22;724;49.910;12.530;2023-05-10T09:23:21;9.40;1.00
1461;DHT22;724;49.910;12.530;2023-05-10T09:26:01;9.60;99.90
1461;DHT22;724;49.910;12.530;2023-05-10T09:28:32;9.50;99.90
1461;DHT22;724;49.910;12.530;2023-05-10T09:31:00;9.60;99.90
1461;DHT22;724;49.910;12.530;2023-05-10T09:33:26;9.50;17.30
1461;DHT22;724;49.910;12.530;2023-05-10T09:35:53;9.70;1.00
1461;DHT22;724;49.910;12.530;2023-05-10T09:38:20;10.00;1.00
1461;DHT22;724;49.910;12.530;2023-05-10T09:40:51;10.10;1.00
1461;DHT22;724;49.910;12.530;2023-05-10T09:43:20;10.20;1.00
1461;DHT22;724;49.910;12.530;2023-05-10T09:45:48;10.40;1.00
1461;DHT22;724;49.910;12.530;2023-05-10T09:48:16;10.60;99.90
1461;DHT22;724;49.910;12.530;2023-05-10T09:50:43;10.70;99.90
1461;DHT22;724;49.910;12.530;2023-05-10T09:53:14;10.40;1.00
1461;DHT22;724;49.910;12.530;2023-05-10T09:55:43;10.60;1.00
1461;DHT22;724;49.910;12.530;2023-05-10T09:58:11;10.40;1.00
1461;DHT22;724;49.910;12.530;2023-05-10T10:00:39;10.10;10.70
1461;DHT22;724;49.910;12.530;2023-05-10T10:03:13;10.60;1.00
1461;DHT22;724;49.910;12.530;2023-05-10T10:05:43;10.70;99.90
1461;DHT22;724;49.910;12.530;2023-05-10T10:08:10;10.50;86.30
1461;DHT22;724;49.910;12.530;2023-05-10T10:10:37;10.50;99.90
1461;DHT22;724;49.910;12.530;2023-05-10T10:13:06;10.70;99.90
1461;DHT22;724;49.910;12.530;2023-05-10T10:15:33;10.80;99.90
1461;DHT22;724;49.910;12.530;2023-05-10T10:18:01;10.80;99.90
1461;DHT22;724;49.910;12.530;2023-05-10T10:20:30;10.80;1.00
1461;DHT22;724;49.910;12.530;2023-05-10T10:22:57;11.00;1.00
1461;DHT22;724;49.910;12.530;2023-05-10T10:25:24;11.20;99.90
1461;DHT22;724;49.910;12.530;2023-05-10T10:28:12;11.20;1.00
1461;DHT22;724;49.910;12.530;2023-05-10T10:30:43;11.20;1.00
1461;DHT22;724;49.910;12.530;2023-05-10T10:33:36;11.00;99.90
1461;DHT22;724;49.910;12.530;2023-05-10T10:36:07;11.00;99.90
1461;DHT22;724;49.910;12.530;2023-05-10T10:41:29;11.10;99.90
1461;DHT22;724;49.910;12.530;2023-05-10T10:47:22;11.60;99.90
1461;DHT22;724;49.910;12.530;2023-05-10T10:49:51;11.60;1.00
1461;DHT22;724;49.910;12.530;2023-05-10T10:52:25;11.70;1.00
1461;DHT22;724;49.910;12.530;2023-05-10T10:54:58;11.50;1.00
1461;DHT22;724;49.910;12.530;2023-05-10T10:57:25;12.00;1.00
1461;DHT22;724;49.910;12.530;2023-05-10T11:00:21;11.70;1.00
1461;DHT22;724;49.910;12.530;2023-05-10T11:02:49;11.70;1.00
1461;DHT22;724;49.910;12.530;2023-05-10T11:08:18;11.20;99.90
1461;DHT22;724;49.910;12.530;2023-05-10T11:10:53;11.30;1.00
1461;DHT22;724;49.910;12.530;2023-05-10T11:13:31;11.50;1.00
1461;DHT22;724;49.910;12.530;2023-05-10T11:15:58;11.80;99.90
1461;DHT22;724;49.910;12.530;2023-05-10T11:18:26;12.10;99.90
1461;DHT22;724;49.910;12.530;2023-05-10T11:20:57;12.40;1.00
1461;DHT22;724;49.910;12.530;2023-05-10T11:23:32;12.30;1.00
1461;DHT22;724;49.910;12.530;2023-05-10T11:26:00;12.50;1.00
1461;DHT22;724;49.910;12.530;2023-05-10T11:28:27;12.50;1.00
1461;DHT22;724;49.910;12.530;2023-05-10T11:30:54;12.00;1.00
1461;DHT22;724;49.910;12.530;2023-05-10T11:33:21;11.90;1.00
1461;DHT22;724;49.910;12.530;2023-05-10T11:35:48;12.10;1.00
1461;DHT22;724;49.910;12.530;2023-05-10T11:38:15;11.80;99.90
1461;DHT22;724;49.910;12.530;2023-05-10T11:40:43;11.90;1.00
1461;DHT22;724;49.910;12.530;2023-05-10T11:43:10;12.10;1.00
1461;DHT22;724;49.910;12.530;2023-05-10T11:45:38;12.00;1.00
1461;DHT22;724;49.910;12.530;2023-05-10T11:48:06;12.00;1.00
1461;DHT22;724;49.910;12.530;2023-05-10T11:50:33;12.20;1.00
1461;DHT22;724;49.910;12.530;2023-05-10T11:53:00;12.30;99.90
1461;DHT22;724;49.910;12.530;2023-05-10T11:55:27;12.40;99.90
1461;DHT22;724;49.910;12.530;2023-05-10T11:58:01;12.40;99.90
1461;DHT22;724;49.910;12.530;2023-05-10T12:00:28;12.50;99.90
1461;DHT22;724;49.910;12.530;2023-05-10T12:02:55;12.90;99.90
1461;DHT22;724;49.910;12.530;2023-05-10T12:05:23;12.90;1.00
1461;DHT22;724;49.910;12.530;2023-05-10T12:07:50;13.00;1.00
1461;DHT22;724;49.910;12.530;2023-05-10T12:10:25;13.00;84.70
1461;DHT22;724;49.910;12.530;2023-05-10T12:12:52;12.70;99.90
1461;DHT22;724;49.910;12.530;2023-05-10T12:15:22;12.80;99.90
1461;DHT22;724;49.910;12.530;2023-05-10T12:17:50;12.80;99.90
1461;DHT22;724;49.910;12.530;2023-05-10T12:20:18;13.00;99.90
1461;DHT22;724;49.910;12.530;2023-05-10T12:22:49;12.80;99.90
1461;DHT22;724;49.910;12.530;2023-05-10T12:25:17;12.70;99.90
1461;DHT22;724;49.910;12.530;2023-05-10T12:27:51;12.50;99.90
1461;DHT22;724;49.910;12.530;2023-05-10T12:30:23;12.40;1.00
1461;DHT22;724;49.910;12.530;2023-05-10T12:32:51;12.40;1.00
1461;DHT22;724;49.910;12.530;2023-05-10T12:35:18;12.30;99.90
1461;DHT22;724;49.910;12.530;2023-05-10T12:37:47;12.30;99.90
1461;DHT22;724;49.910;12.530;2023-05-10T12:40:15;12.50;99.90
1461;DHT22;724;49.910;12.530;2023-05-10T12:42:42;12.20;99.90
1461;DHT22;724;49.910;12.530;2023-05-10T12:45:11;12.00;99.90
1461;DHT22;724;49.910;12.530;2023-05-10T12:47:39;11.70;1.00
1461;DHT22;724;49.910;12.530;2023-05-10T12:50:07;11.70;99.90
1461;DHT22;724;49.910;12.530;2023-05-10T12:52:34;11.70;99.90
1461;DHT22;724;49.910;12.530;2023-05-10T12:55:01;11.90;99.90
1461;DHT22;724;49.910;12.530;2023-05-10T12:57:30;11.90;99.90
1461;DHT22;724;49.910;12.530;2023-05-10T12:59:57;11.80;99.90
1461;DHT22;724;49.910;12.530;2023-05-10T13:02:24;11.90;99.90
1461;DHT22;724;49.910;12.530;2023-05-10T13:04:53;11.80;1.00
1461;DHT22;724;49.910;12.530;2023-05-10T13:07:19;11.60;1.00
1461;DHT22;724;49.910;12.530;2023-05-10T13:09:46;11.90;99.90
1461;DHT22;724;49.910;12.530;2023-05-10T13:12:13;12.00;99.90
1461;DHT22;724;49.910;12.530;2023-05-10T13:14:40;11.90;1.00
1461;DHT22;724;49.910;12.530;2023-05-10T13:17:07;11.80;6.30
1461;DHT22;724;49.910;12.530;2023-05-10T13:19:34;11.80;21.20
1461;DHT22;724;49.910;12.530;2023-05-10T13:22:03;11.80;99.90
1461;DHT22;724;49.910;12.530;2023-05-10T13:24:29;12.00;99.90
1461;DHT22;724;49.910;12.530;2023-05-10T13:26:56;12.10;44.10
1461;DHT22;724;49.910;12.530;2023-05-10T13:29:23;12.10;1.00
1461;DHT22;724;49.910;12.530;2023-05-10T13:31:50;11.80;1.00
1461;DHT22;724;49.910;12.530;2023-05-10T13:34:17;12.00;1.00
1461;DHT22;724;49.910;12.530;2023-05-10T13:36:47;12.20;99.90
1461;DHT22;724;49.910;12.530;2023-05-10T13:39:15;12.20;1.00
1461;DHT22;724;49.910;12.530;2023-05-10T13:41:42;12.00;13.60
1461;DHT22;724;49.910;12.530;2023-05-10T13:44:11;11.90;99.90
1461;DHT22;724;49.910;12.530;2023-05-10T13:46:38;11.90;1.00
1461;DHT22;724;49.910;12.530;2023-05-10T13:49:05;11.80;99.90
1461;DHT22;724;49.910;12.530;2023-05-10T13:51:32;11.80;1.00
1461;DHT22;724;49.910;12.530;2023-05-10T13:53:59;11.60;1.00
1461;DHT22;724;49.910;12.530;2023-05-10T13:56:27;11.60;1.00
1461;DHT22;724;49.910;12.530;2023-05-10T13:58:55;11.50;99.90
1461;DHT22;724;49.910;12.530;2023-05-10T14:01:22;11.60;99.90
1461;DHT22;724;49.910;12.530;2023-05-10T14:03:49;11.60;99.90
1461;DHT22;724;49.910;12.530;2023-05-10T14:06:16;11.70;99.90
1461;DHT22;724;49.910;12.530;2023-05-10T14:08:42;11.80;99.90
1461;DHT22;724;49.910;12.530;2023-05-10T14:11:09;11.90;59.00
1461;DHT22;724;49.910;12.530;2023-05-10T14:13:37;11.90;90.60
1461;DHT22;724;49.910;12.530;2023-05-10T14:16:06;12.20;99.90
1461;DHT22;724;49.910;12.530;2023-05-10T14:18:35;12.00;1.00
1461;DHT22;724;49.910;12.530;2023-05-10T14:21:02;12.00;1.00
1461;DHT22;724;49.910;12.530;2023-05-10T14:23:30;11.70;1.00
1461;DHT22;724;49.910;12.530;2023-05-10T14:25:56;11.90;1.00
1461;DHT22;724;49.910;12.530;2023-05-10T14:28:23;11.90;1.00
1461;DHT22;724;49.910;12.530;2023-05-10T14:30:51;12.30;1.00
1461;DHT22;724;49.910;12.530;2023-05-10T14:33:19;12.50;99.90
1461;DHT22;724;49.910;12.530;2023-05-10T14:35:47;12.40;1.00
1461;DHT22;724;49.910;12.530;2023-05-10T14:38:14;12.50;99.90
1461;DHT22;724;49.910;12.530;2023-05-10T14:40:41;12.60;1.00
1461;DHT22;724;49.910;12.530;2023-05-10T14:43:08;12.40;1.00
1461;DHT22;724;49.910;12.530;2023-05-10T14:45:35;12.30;67.20
1461;DHT22;724;49.910;12.530;2023-05-10T14:48:03;12.40;1.00
1461;DHT22;724;49.910;12.530;2023-05-10T14:50:31;12.50;1.00
1461;DHT22;724;49.910;12.530;2023-05-10T14:52:58;12.90;1.00
1461;DHT22;724;49.910;12.530;2023-05-10T14:55:25;12.90;1.00
1461;DHT22;724;49.910;12.530;2023-05-10T14:57:53;12.80;1.00
1461;DHT22;724;49.910;12.530;2023-05-10T15:00:21;12.70;99.90
1461;DHT22;724;49.910;12.530;2023-05-10T15:02:48;13.00;99.90
1461;DHT22;724;49.910;12.530;2023-05-10T15:05:16;12.70;99.90
1461;DHT22;724;49.910;12.530;2023-05-10T15:07:43;12.70;1.00
1461;DHT22;724;49.910;12.530;2023-05-10T15:10:09;12.80;1.00
1461;DHT22;724;49.910;12.530;2023-05-10T15:12:37;12.80;1.00
1461;DHT22;724;49.910;12.530;2023-05-10T15:15:04;12.90;1.00
1461;DHT22;724;49.910;12.530;2023-05-10T15:17:32;12.70;99.90
1461;DHT22;724;49.910;12.530;2023-05-10T15:19:59;12.60;1.00
1461;DHT22;724;49.910;12.530;2023-05-10T15:22:28;12.50;1.00
1461;DHT22;724;49.910;12.530;2023-05-10T15:24:57;12.70;1.00
1461;DHT22;724;49.910;12.530;2023-05-10T15:27:25;13.00;1.00
1461;DHT22;724;49.910;12.530;2023-05-10T15:29:52;12.90;99.90
1461;DHT22;724;49.910;12.530;2023-05-10T15:32:18;12.80;99.90
1461;DHT22;724;49.910;12.530;2023-05-10T15:34:45;12.80;99.90
1461;DHT22;724;49.910;12.530;2023-05-10T15:37:12;12.80;99.90
1461;DHT22;724;49.910;12.530;2023-05-10T15:39:41;12.60;1.00
1461;DHT22;724;49.910;12.530;2023-05-10T15:42:08;12.70;1.00
1461;DHT22;724;49.910;12.530;2023-05-10T15:44:35;12.60;1.00
1461;DHT22;724;49.910;12.530;2023-05-10T15:47:03;12.60;1.00
1461;DHT22;724;49.910;12.530;2023-05-10T15:49:30;12.70;1.00
1461;DHT22;724;49.910;12.530;2023-05-10T15:51:57;12.70;1.00
1461;DHT22;724;49.910;12.530;2023-05-10T15:54:24;12.90;99.90
1461;DHT22;724;49.910;12.530;2023-05-10T15:56:52;12.80;99.90
1461;DHT22;724;49.910;12.530;2023-05-10T15:59:19;12.60;99.90
1461;DHT22;724;49.910;12.530;2023-05-10T16:01:47;12.40;1.00
1461;DHT22;724;49.910;12.530;2023-05-10T16:04:14;12.40;1.00
1461;DHT22;724;49.910;12.530;2023-05-10T16:06:41;12.30;1.00
1461;DHT22;724;49.910;12.530;2023-05-10T16:09:08;12.40;1.00
1461;DHT22;724;49.910;12.530;2023-05-10T16:11:36;12.50;1.00
1461;DHT22;724;49.910;12.530;2023-05-10T16:14:05;12.60;1.00
1461;DHT22;724;49.910;12.530;2023-05-10T16:16:44;12.50;1.00
1461;DHT22;724;49.910;12.530;2023-05-10T16:19:11;12.60;1.00
1461;DHT22;724;49.910;12.530;2023-05-10T16:21:38;12.70;1.00
1461;DHT22;724;49.910;12.530;2023-05-10T16:24:05;12.60;1.00
1461;DHT22;724;49.910;12.530;2023-05-10T16:26:32;12.50;1.00
1461;DHT22;724;49.910;12.530;2023-05-10T16:29:05;12.60;1.00
1461;DHT22;724;49.910;12.530;2023-05-10T16:31:32;12.40;13.10
1461;DHT22;724;49.910;12.530;2023-05-10T16:33:59;12.60;99.90
1461;DHT22;724;49.910;12.530;2023-05-10T16:36:26;12.20;99.90
1461;DHT22;724;49.910;12.530;2023-05-10T16:38:53;12.00;1.00